Time;durP1;ratioP1;P1;durP2;ratioP2;P2;SDS_P1;SDS_P2;PMS_P1;PMS_P2;Temp;Humidity;BMP_temperature;BMP_pressure;BME280_temperature;BME280_humidity;BME280_pressure;Samples;Min_cycle;Max_cycle;Signal;HPM_P1;HPM_P2
2022/03/18 00:02:25;;;;;;;4.22;2.90;;;3.40;45.20;;;;;;5105776;27;35827;-75
2022/03/18 00:04:53;;;;;;;4.45;3.15;;;3.40;45.20;;;;;;5088388;27;34332;-75
2022/03/18 00:07:21;;;;;;;5.72;3.28;;;3.40;45.40;;;;;;5123769;27;34232;-75
2022/03/18 00:09:48;;;;;;;7.20;3.95;;;3.40;45.30;;;;;;5088625;27;34103;-75
2022/03/18 00:12:14;;;;;;;7.70;4.00;;;3.30;45.40;;;;;;5104628;27;36206;-75
2022/03/18 00:14:41;;;;;;;9.65;3.35;;;3.30;46.30;;;;;;5104881;27;34250;-75
2022/03/18 00:17:08;;;;;;;5.93;3.58;;;3.30;45.60;;;;;;5104865;27;34097;-75
2022/03/18 00:19:36;;;;;;;6.18;3.58;;;3.30;45.50;;;;;;5088303;27;34314;-75
2022/03/18 00:22:03;;;;;;;4.88;3.63;;;3.20;45.50;;;;;;5104650;27;35934;-75
2022/03/18 00:24:32;;;;;;;6.65;3.70;;;3.20;45.40;;;;;;5123242;27;34170;-76
2022/03/18 00:27:00;;;;;;;8.93;4.05;;;3.20;45.50;;;;;;5087880;27;34288;-75
2022/03/18 00:29:27;;;;;;;5.22;3.60;;;3.20;45.40;;;;;;5122849;27;34226;-75
2022/03/18 00:31:53;;;;;;;5.32;3.30;;;3.10;45.70;;;;;;5107044;27;35997;-75
2022/03/18 00:34:19;;;;;;;3.85;3.03;;;3.10;45.50;;;;;;5108523;27;34314;-75
2022/03/18 00:36:46;;;;;;;7.10;3.95;;;3.10;45.60;;;;;;5108936;27;34274;-75
2022/03/18 00:39:13;;;;;;;5.10;3.65;;;3.10;45.70;;;;;;5109371;27;34352;-75
2022/03/18 00:41:39;;;;;;;5.90;3.78;;;3.00;45.90;;;;;;5126332;27;34804;-76
2022/03/18 00:44:05;;;;;;;4.68;3.08;;;3.00;45.80;;;;;;5108312;27;34433;-75
2022/03/18 00:46:31;;;;;;;5.90;3.58;;;3.00;45.80;;;;;;5107958;27;34443;-75
2022/03/18 00:54:20;;;;;;;5.68;3.83;;;2.90;45.80;;;;;;5126456;27;34149;-75
2022/03/18 00:56:46;;;;;;;6.13;4.03;;;2.90;45.70;;;;;;5108615;27;34197;-75
2022/03/18 00:59:12;;;;;;;4.45;3.67;;;2.90;45.80;;;;;;5126904;27;34128;-75
2022/03/18 01:01:38;;;;;;;6.60;3.88;;;2.90;45.90;;;;;;5108032;27;35644;-75
2022/03/18 01:04:05;;;;;;;7.35;3.85;;;2.90;45.90;;;;;;5108429;27;34510;-75
2022/03/18 01:06:32;;;;;;;4.38;3.33;;;2.90;45.80;;;;;;5104200;27;34312;-76
2022/03/18 01:08:58;;;;;;;5.43;3.97;;;2.80;46.10;;;;;;5087760;28;34503;-76
2022/03/18 01:11:24;;;;;;;6.40;3.58;;;2.80;46.10;;;;;;5087753;28;35911;-76
2022/03/18 01:13:50;;;;;;;6.00;3.78;;;2.80;46.00;;;;;;5104286;27;34443;-75
2022/03/18 01:16:16;;;;;;;8.70;4.05;;;2.80;46.30;;;;;;5104120;27;34273;-76
2022/03/18 01:18:42;;;;;;;5.18;3.45;;;2.80;46.30;;;;;;5105198;27;34325;-76
2022/03/18 01:21:08;;;;;;;6.93;4.13;;;2.70;46.30;;;;;;5086605;28;35538;-75
2022/03/18 01:23:34;;;;;;;8.55;3.80;;;2.70;46.50;;;;;;5105321;27;34127;-76
2022/03/18 01:26:00;;;;;;;4.03;3.55;;;2.70;46.40;;;;;;5087364;28;34222;-76
2022/03/18 01:28:27;;;;;;;6.90;4.20;;;2.70;46.40;;;;;;5104558;27;34164;-76
2022/03/18 01:30:54;;;;;;;6.05;3.55;;;2.70;46.30;;;;;;5103957;27;36722;-76
2022/03/18 01:33:20;;;;;;;7.38;3.88;;;2.70;46.30;;;;;;5105691;28;34216;-75
2022/03/18 01:35:46;;;;;;;7.93;3.83;;;2.60;46.60;;;;;;5104265;27;34471;-75
2022/03/18 01:38:11;;;;;;;5.78;3.70;;;2.60;47.30;;;;;;5104525;27;34249;-76
2022/03/18 01:40:38;;;;;;;4.50;3.72;;;2.60;46.50;;;;;;5086579;28;36527;-75
2022/03/18 01:43:09;;;;;;;5.25;3.67;;;2.60;46.30;;;;;;5086487;28;34077;-75
2022/03/18 01:45:35;;;;;;;6.10;3.75;;;2.60;46.50;;;;;;5105271;27;34174;-76
2022/03/18 01:48:02;;;;;;;6.10;4.18;;;2.60;46.50;;;;;;5087288;28;34170;-76
2022/03/18 01:50:28;;;;;;;6.45;3.53;;;2.50;46.50;;;;;;5104126;27;34890;-76
2022/03/18 01:52:54;;;;;;;5.30;3.63;;;2.50;46.50;;;;;;5087867;28;34160;-76
2022/03/18 01:55:21;;;;;;;5.95;3.75;;;2.50;46.60;;;;;;5087009;28;34282;-76
2022/03/18 01:57:47;;;;;;;5.28;3.85;;;2.40;46.50;;;;;;5103883;27;34166;-75
2022/03/18 02:00:14;;;;;;;7.45;3.83;;;2.50;46.70;;;;;;5104139;27;34248;-75
2022/03/18 02:02:40;;;;;;;3.70;3.28;;;2.50;46.70;;;;;;5103862;27;34331;-76
2022/03/18 02:05:06;;;;;;;5.15;3.75;;;2.40;46.50;;;;;;5104149;27;34515;-75
2022/03/18 02:07:33;;;;;;;6.93;4.20;;;2.40;46.50;;;;;;5125653;27;34230;-76
2022/03/18 02:09:59;;;;;;;4.90;3.42;;;2.40;46.60;;;;;;5106478;27;36265;-76
2022/03/18 02:12:25;;;;;;;6.85;4.20;;;2.40;46.70;;;;;;5125475;27;34085;-76
2022/03/18 02:14:51;;;;;;;5.55;3.28;;;2.30;46.80;;;;;;5106556;27;34181;-76
2022/03/18 02:17:18;;;;;;;5.65;3.85;;;2.40;46.80;;;;;;5124935;27;34502;-76
2022/03/18 02:19:47;;;;;;;9.88;3.70;;;2.30;46.70;;;;;;5072818;27;36407;-76
2022/03/18 02:22:18;;;;;;;5.07;4.00;;;2.30;46.70;;;;;;5107216;27;34155;-75
2022/03/18 02:24:46;;;;;;;5.03;3.58;;;2.30;46.80;;;;;;5124714;27;34072;-76
2022/03/18 02:27:12;;;;;;;5.15;3.50;;;2.30;46.80;;;;;;5106517;27;34203;-76
2022/03/18 02:29:39;;;;;;;4.30;3.90;;;2.30;46.70;;;;;;5106191;27;35826;-75
2022/03/18 02:32:07;;;;;;;4.22;3.33;;;2.30;46.70;;;;;;5106006;27;34451;-76
2022/03/18 02:34:35;;;;;;;5.22;3.80;;;2.30;46.80;;;;;;5106349;27;34256;-75
2022/03/18 02:37:01;;;;;;;6.35;3.55;;;2.30;46.80;;;;;;5089155;27;34571;-76
2022/03/18 02:39:27;;;;;;;5.90;3.88;;;2.30;46.60;;;;;;5124332;27;34437;-75
2022/03/18 02:41:55;;;;;;;6.63;3.58;;;2.30;46.50;;;;;;5105636;27;34176;-75
2022/03/18 02:44:21;;;;;;;5.28;3.38;;;2.30;46.80;;;;;;5106309;27;34157;-75
2022/03/18 02:46:47;;;;;;;7.65;4.05;;;2.20;46.60;;;;;;5124433;27;34275;-76
2022/03/18 02:49:13;;;;;;;6.03;3.60;;;2.20;46.70;;;;;;5105630;27;35720;-76
2022/03/18 02:51:39;;;;;;;6.43;3.60;;;2.20;46.70;;;;;;5123928;27;34049;-75
2022/03/18 02:54:05;;;;;;;4.10;3.67;;;2.20;46.70;;;;;;5104888;27;34116;-76
2022/03/18 02:56:32;;;;;;;4.70;3.70;;;2.10;46.70;;;;;;5124150;27;34085;-76
2022/03/18 02:59:00;;;;;;;6.95;3.55;;;2.10;46.70;;;;;;5123378;27;34706;-75
2022/03/18 03:01:27;;;;;;;5.00;3.38;;;2.10;46.80;;;;;;5106180;27;34197;-75
2022/03/18 03:03:54;;;;;;;5.90;3.60;;;2.00;46.80;;;;;;5105690;27;34241;-75
2022/03/18 03:09:02;;;;;;;4.72;3.28;;;2.00;46.80;;;;;;5122922;27;34799;-74
2022/03/18 03:11:28;;;;;;;4.18;3.47;;;2.00;46.60;;;;;;5105430;27;34462;-75
2022/03/18 03:13:55;;;;;;;6.93;3.80;;;2.00;46.60;;;;;;5123314;27;34036;-75
2022/03/18 03:16:21;;;;;;;5.03;3.65;;;2.00;46.60;;;;;;5123640;27;34150;-75
2022/03/18 03:18:48;;;;;;;6.30;4.18;;;2.00;46.70;;;;;;5087954;27;36014;-75
2022/03/18 03:21:14;;;;;;;4.70;3.45;;;1.90;46.60;;;;;;5104828;27;34281;-75
2022/03/18 03:23:42;;;;;;;5.05;3.67;;;1.90;46.80;;;;;;5123480;27;34429;-76
2022/03/18 03:26:08;;;;;;;8.20;3.72;;;1.90;46.70;;;;;;5105178;27;34443;-75
2022/03/18 03:28:35;;;;;;;7.05;4.32;;;1.90;46.80;;;;;;5122895;27;34374;-75
2022/03/18 03:31:02;;;;;;;4.65;3.13;;;1.90;47.10;;;;;;5105071;27;34236;-75
2022/03/18 03:33:28;;;;;;;4.50;3.33;;;1.80;46.90;;;;;;5105211;27;34221;-76
2022/03/18 03:35:54;;;;;;;4.22;3.67;;;1.80;46.90;;;;;;5087866;27;34222;-75
2022/03/18 03:38:21;;;;;;;5.97;3.80;;;1.80;47.00;;;;;;5105092;27;35903;-75
2022/03/18 03:40:48;;;;;;;5.38;3.97;;;1.80;47.00;;;;;;5123116;27;34392;-75
2022/03/18 03:43:14;;;;;;;6.45;4.10;;;1.70;46.80;;;;;;5104465;27;34420;-75
2022/03/18 03:45:40;;;;;;;5.43;3.83;;;1.70;46.90;;;;;;5122938;27;34314;-75
2022/03/18 03:48:07;;;;;;;5.03;3.70;;;1.70;46.90;;;;;;5122954;27;34855;-75
2022/03/18 03:50:34;;;;;;;8.68;3.92;;;1.70;46.90;;;;;;5104997;27;34306;-75
2022/03/18 03:53:02;;;;;;;6.00;3.92;;;1.70;47.00;;;;;;5105860;27;34195;-75
2022/03/18 03:55:28;;;;;;;4.50;3.55;;;1.60;47.10;;;;;;5104678;27;34287;-75
2022/03/18 03:57:54;;;;;;;5.20;3.60;;;1.60;47.40;;;;;;5122825;27;34357;-75
2022/03/18 04:00:21;;;;;;;4.53;3.58;;;1.60;47.30;;;;;;5105189;27;34188;-75
2022/03/18 04:02:47;;;;;;;6.10;3.67;;;1.60;47.00;;;;;;5104651;27;34166;-75
2022/03/18 04:05:13;;;;;;;8.15;3.72;;;1.60;47.00;;;;;;5104295;27;34101;-75
2022/03/18 04:07:42;;;;;;;4.18;3.38;;;1.60;47.10;;;;;;5107292;27;36548;-75
2022/03/18 04:10:10;;;;;;;7.28;3.95;;;1.50;47.00;;;;;;5107927;27;34490;-75
2022/03/18 04:12:36;;;;;;;6.32;3.97;;;1.60;47.10;;;;;;5126435;27;34176;-75
2022/03/18 04:15:04;;;;;;;7.68;3.97;;;1.50;47.20;;;;;;5108339;27;34216;-75
2022/03/18 04:17:40;;;;;;;5.18;3.90;;;1.60;47.10;;;;;;5107862;27;35626;-75
2022/03/18 04:20:09;;;;;;;6.25;4.10;;;1.50;47.30;;;;;;5108253;27;34010;-75
2022/03/18 04:22:35;;;;;;;7.15;4.10;;;1.50;47.20;;;;;;5107425;27;34454;-75
2022/03/18 04:25:01;;;;;;;5.28;3.70;;;1.50;47.00;;;;;;5107576;27;34139;-75
2022/03/18 04:27:27;;;;;;;7.25;3.90;;;1.50;46.80;;;;;;5125954;27;35238;-76
2022/03/18 04:29:54;;;;;;;4.20;3.50;;;1.50;47.10;;;;;;5107884;27;34218;-76
2022/03/18 04:32:19;;;;;;;5.28;3.80;;;1.40;47.00;;;;;;5125783;27;34185;-75
2022/03/18 04:34:45;;;;;;;4.88;4.03;;;1.40;47.70;;;;;;5108562;27;34268;-75
2022/03/18 04:37:12;;;;;;;8.68;4.40;;;1.40;47.10;;;;;;5125792;27;35092;-75
2022/03/18 04:39:38;;;;;;;6.95;4.32;;;1.40;47.20;;;;;;5107757;27;34394;-76
2022/03/18 04:42:04;;;;;;;5.75;3.67;;;1.40;47.40;;;;;;5125702;27;34283;-75
2022/03/18 04:44:30;;;;;;;6.53;4.18;;;1.40;47.40;;;;;;5108166;27;34170;-75
2022/03/18 04:46:56;;;;;;;4.95;3.70;;;1.40;47.30;;;;;;5107365;27;35746;-76
2022/03/18 04:49:22;;;;;;;5.05;3.72;;;1.30;47.30;;;;;;5090675;27;34249;-76
2022/03/18 04:51:48;;;;;;;6.07;3.83;;;1.30;47.30;;;;;;5107321;27;34339;-76
2022/03/18 04:54:14;;;;;;;6.50;4.30;;;1.30;47.30;;;;;;5090131;27;33921;-76
2022/03/18 04:59:21;;;;;;;5.93;4.07;;;1.30;47.20;;;;;;5125638;27;34153;-76
2022/03/18 05:01:47;;;;;;;6.07;3.42;;;1.30;47.30;;;;;;5090361;27;34294;-76
2022/03/18 05:04:13;;;;;;;10.30;4.47;;;1.30;47.20;;;;;;5090012;27;34199;-76
2022/03/18 05:06:39;;;;;;;5.32;3.42;;;1.20;47.40;;;;;;5103240;28;36463;-76
2022/03/18 05:09:06;;;;;;;6.20;4.25;;;1.20;47.50;;;;;;5103314;27;35251;-76
2022/03/18 05:11:32;;;;;;;5.35;4.05;;;1.20;47.40;;;;;;5105820;27;34357;-76
2022/03/18 05:13:58;;;;;;;4.72;3.97;;;1.20;47.30;;;;;;5105198;27;34340;-76
2022/03/18 05:16:25;;;;;;;6.60;4.25;;;1.20;47.30;;;;;;5104098;27;36647;-76
2022/03/18 05:18:52;;;;;;;11.27;3.90;;;1.20;47.60;;;;;;5104808;27;34143;-76
2022/03/18 05:21:19;;;;;;;4.95;3.65;;;1.10;47.60;;;;;;5104883;28;34149;-77
2022/03/18 05:23:46;;;;;;;5.68;3.67;;;1.10;47.50;;;;;;5105267;27;34239;-77
2022/03/18 05:26:13;;;;;;;8.85;3.65;;;1.10;47.60;;;;;;5105663;28;34156;-77
2022/03/18 05:28:40;;;;;;;5.28;4.15;;;1.10;47.70;;;;;;5104420;27;34100;-77
2022/03/18 05:31:06;;;;;;;6.35;3.72;;;1.10;47.60;;;;;;5106078;27;34148;-77
2022/03/18 05:33:32;;;;;;;5.07;3.88;;;1.10;47.80;;;;;;5104018;27;34186;-77
2022/03/18 05:35:58;;;;;;;7.88;4.18;;;1.10;47.70;;;;;;5103550;27;36199;-77
2022/03/18 05:38:25;;;;;;;7.60;4.03;;;1.10;47.90;;;;;;5086726;28;34280;-77
2022/03/18 05:40:53;;;;;;;4.75;3.58;;;1.10;47.90;;;;;;5105355;27;34253;-77
2022/03/18 05:43:19;;;;;;;6.40;4.28;;;1.00;47.70;;;;;;5103698;27;34649;-78
2022/03/18 05:45:45;;;;;;;7.32;3.63;;;1.00;47.50;;;;;;5086314;28;35819;-77
2022/03/18 05:48:12;;;;;;;9.43;4.43;;;1.00;47.50;;;;;;5104745;27;34156;-77
2022/03/18 05:50:39;;;;;;;8.30;4.20;;;1.00;47.60;;;;;;5103630;27;34316;-77
2022/03/18 05:53:05;;;;;;;7.22;4.57;;;1.00;47.80;;;;;;5103035;27;34172;-77
2022/03/18 05:58:15;;;;;;;5.90;4.20;;;1.00;47.80;;;;;;5105075;27;34097;-77
2022/03/18 06:00:43;;;;;;;6.60;4.32;;;1.00;48.10;;;;;;5103518;27;34164;-77
2022/03/18 06:03:09;;;;;;;6.55;4.45;;;1.00;47.80;;;;;;5103335;27;34379;-77
2022/03/18 06:05:35;;;;;;;6.97;4.40;;;1.00;48.90;;;;;;5103099;27;35970;-77
2022/03/18 06:13:24;;;;;;;6.90;4.40;;;1.10;48.10;;;;;;5104396;27;34402;-77
2022/03/18 06:15:50;;;;;;;12.13;4.90;;;1.00;48.00;;;;;;5103755;27;35801;-77
2022/03/18 06:18:16;;;;;;;6.75;4.00;;;1.10;48.00;;;;;;5087350;28;34235;-77
2022/03/18 06:20:42;;;;;;;6.00;3.92;;;1.10;48.00;;;;;;5105326;28;34236;-77
2022/03/18 06:23:08;;;;;;;5.82;4.13;;;1.10;48.30;;;;;;5086958;28;34101;-77
2022/03/18 06:25:34;;;;;;;7.90;4.57;;;1.10;48.50;;;;;;5103639;27;34271;-77
2022/03/18 06:28:00;;;;;;;7.25;4.22;;;1.20;48.40;;;;;;5102485;27;34224;-77
2022/03/18 06:30:25;;;;;;;9.23;5.07;;;1.20;48.30;;;;;;5105125;27;34328;-77
2022/03/18 06:32:51;;;;;;;6.28;4.35;;;1.30;48.40;;;;;;5087496;28;34591;-77
2022/03/18 06:35:17;;;;;;;5.53;4.15;;;1.30;48.50;;;;;;5104527;28;34308;-78
2022/03/18 06:37:43;;;;;;;8.85;4.68;;;1.40;48.20;;;;;;5105400;28;34340;-78
2022/03/18 06:40:09;;;;;;;7.53;4.38;;;1.40;48.40;;;;;;5087030;28;34236;-77
2022/03/18 06:42:35;;;;;;;6.97;4.65;;;1.50;48.30;;;;;;5104940;27;34340;-77
2022/03/18 06:45:01;;;;;;;5.30;4.30;;;1.50;48.10;;;;;;5103636;28;34380;-78
2022/03/18 06:47:27;;;;;;;6.57;4.72;;;1.60;48.50;;;;;;5103934;27;34238;-78
2022/03/18 06:49:53;;;;;;;7.30;4.50;;;1.60;48.30;;;;;;5103479;27;34171;-78
2022/03/18 06:52:19;;;;;;;9.48;4.88;;;1.70;48.20;;;;;;5104981;27;34438;-78
2022/03/18 06:54:45;;;;;;;8.77;4.28;;;1.80;48.00;;;;;;5104391;28;35930;-78
2022/03/18 06:57:10;;;;;;;9.38;4.80;;;1.90;48.20;;;;;;5105604;27;34171;-78
2022/03/18 06:59:36;;;;;;;8.98;5.55;;;1.90;48.10;;;;;;5103661;27;34187;-77
2022/03/18 07:02:02;;;;;;;9.60;5.82;;;2.00;48.00;;;;;;5103307;27;34470;-78
2022/03/18 07:04:28;;;;;;;8.18;5.07;;;2.10;48.00;;;;;;5104485;28;35005;-77
2022/03/18 07:06:54;;;;;;;10.10;5.05;;;2.20;47.80;;;;;;5103731;27;34190;-78
2022/03/18 07:09:20;;;;;;;9.40;5.57;;;2.30;47.80;;;;;;5105603;27;34174;-78
2022/03/18 07:11:46;;;;;;;9.95;5.38;;;2.40;47.80;;;;;;5104523;27;34217;-78
2022/03/18 07:14:12;;;;;;;6.70;5.10;;;2.50;47.80;;;;;;5103056;27;35830;-78
2022/03/18 07:19:19;;;;;;;9.65;5.35;;;2.70;47.60;;;;;;5105194;27;34195;-78
2022/03/18 07:21:46;;;;;;;12.20;5.40;;;2.80;47.50;;;;;;5104640;28;34353;-77
2022/03/18 07:24:12;;;;;;;9.90;5.53;;;2.90;47.30;;;;;;5103675;28;35825;-77
2022/03/18 07:26:38;;;;;;;6.35;5.15;;;3.00;47.80;;;;;;5103505;27;34203;-78
2022/03/18 07:29:05;;;;;;;10.30;6.18;;;3.10;47.00;;;;;;5103992;27;34313;-77
2022/03/18 07:31:31;;;;;;;7.43;5.43;;;3.20;47.00;;;;;;5103216;28;34271;-78
2022/03/18 07:33:57;;;;;;;9.30;5.20;;;3.20;46.90;;;;;;5104034;27;34405;-77
2022/03/18 07:36:23;;;;;;;7.60;5.13;;;3.30;47.00;;;;;;5088079;28;34368;-77
2022/03/18 07:38:49;;;;;;;5.70;4.20;;;3.30;47.00;;;;;;5106981;27;34168;-77
2022/03/18 07:41:17;;;;;;;5.68;4.00;;;3.30;47.20;;;;;;5092119;28;34502;-77
2022/03/18 07:43:43;;;;;;;8.43;4.57;;;3.30;47.40;;;;;;5108402;28;35909;-77
2022/03/18 07:46:09;;;;;;;4.70;3.55;;;3.40;47.60;;;;;;5110392;27;34237;-77
2022/03/18 07:48:39;;;;;;;7.55;4.03;;;3.40;47.70;;;;;;5092872;28;34253;-77
2022/03/18 07:51:06;;;;;;;6.22;3.90;;;3.40;47.80;;;;;;5110854;27;34139;-76
2022/03/18 07:53:32;;;;;;;6.28;4.38;;;3.50;47.90;;;;;;5112155;27;34480;-76
2022/03/18 07:55:58;;;;;;;4.93;3.70;;;3.50;48.00;;;;;;5109447;27;33758;-76
2022/03/18 07:58:24;;;;;;;9.45;4.38;;;3.60;48.20;;;;;;5091925;28;34407;-77
2022/03/18 08:00:50;;;;;;;4.68;3.33;;;3.60;48.10;;;;;;5109585;27;34183;-76
2022/03/18 08:03:17;;;;;;;8.07;4.15;;;3.80;48.20;;;;;;5093100;28;36753;-76
2022/03/18 08:05:43;;;;;;;6.05;3.65;;;3.90;48.10;;;;;;5106802;27;34315;-76
2022/03/18 08:08:09;;;;;;;8.35;4.85;;;4.00;48.10;;;;;;5105690;27;34286;-76
2022/03/18 08:10:36;;;;;;;6.30;3.78;;;4.20;48.10;;;;;;5105255;27;34597;-76
2022/03/18 08:13:02;;;;;;;5.30;3.40;;;4.40;47.80;;;;;;5105330;27;35617;-76
2022/03/18 08:15:28;;;;;;;8.60;3.92;;;4.60;48.00;;;;;;5106638;27;34192;-76
2022/03/18 08:17:55;;;;;;;6.65;4.00;;;4.80;47.60;;;;;;5106603;27;34345;-76
2022/03/18 08:20:21;;;;;;;5.93;3.20;;;5.10;47.30;;;;;;5105575;27;34571;-76
2022/03/18 08:22:48;;;;;;;9.73;3.80;;;5.50;46.50;;;;;;5089395;28;36882;-76
2022/03/18 08:25:15;;;;;;;7.82;3.33;;;5.90;46.30;;;;;;5088408;28;34229;-77
2022/03/18 08:27:40;;;;;;;5.65;3.17;;;6.20;45.80;;;;;;5105253;27;34234;-76
2022/03/18 08:30:11;;;;;;;6.10;3.00;;;6.50;45.00;;;;;;5105110;27;34091;-76
2022/03/18 08:32:37;;;;;;;3.30;2.30;;;6.70;43.80;;;;;;5105077;27;35712;-77
2022/03/18 08:35:04;;;;;;;2.60;2.40;;;7.10;43.00;;;;;;5088277;28;34237;-77
2022/03/18 08:40:12;;;;;;;4.25;2.78;;;7.80;41.60;;;;;;5105876;27;34236;-76
2022/03/18 08:42:38;;;;;;;3.63;2.10;;;8.20;40.60;;;;;;5088463;28;35625;-76
2022/03/18 08:45:05;;;;;;;6.32;2.42;;;8.50;39.80;;;;;;5105287;27;34355;-77
2022/03/18 08:47:31;;;;;;;3.78;2.30;;;8.90;39.60;;;;;;5105340;27;34690;-76
2022/03/18 08:49:57;;;;;;;6.47;2.20;;;9.20;38.20;;;;;;5104688;28;34459;-76
2022/03/18 08:52:23;;;;;;;4.03;1.95;;;9.50;38.00;;;;;;5103440;27;36726;-76
2022/03/18 08:54:49;;;;;;;3.60;1.92;;;9.80;37.60;;;;;;5104603;27;34350;-76
2022/03/18 08:57:15;;;;;;;4.90;1.95;;;9.90;37.60;;;;;;5105272;27;34475;-77
2022/03/18 08:59:41;;;;;;;2.78;1.77;;;10.20;36.60;;;;;;5105466;27;34233;-77
2022/03/18 09:02:08;;;;;;;2.75;1.80;;;10.50;34.20;;;;;;5105645;27;35472;-77
2022/03/18 09:04:34;;;;;;;3.58;1.80;;;10.60;34.50;;;;;;5105374;27;34277;-76
2022/03/18 09:07:00;;;;;;;2.83;1.58;;;10.80;34.60;;;;;;5104162;27;34453;-77
2022/03/18 09:09:26;;;;;;;3.47;1.52;;;11.00;33.60;;;;;;5104141;28;34272;-77
2022/03/18 09:11:52;;;;;;;4.13;1.60;;;11.20;33.50;;;;;;5104515;27;36235;-77
2022/03/18 09:14:18;;;;;;;2.53;1.48;;;11.40;33.10;;;;;;5104674;27;34133;-76
2022/03/18 09:16:44;;;;;;;2.17;1.25;;;11.70;33.10;;;;;;5104503;27;34101;-76
2022/03/18 09:19:10;;;;;;;6.28;1.60;;;11.90;32.80;;;;;;5087284;28;34115;-76
2022/03/18 09:21:36;;;;;;;2.80;1.50;;;12.20;32.50;;;;;;5086598;27;35862;-76
2022/03/18 09:24:02;;;;;;;2.22;1.35;;;12.40;31.90;;;;;;5106202;27;34256;-77
2022/03/18 09:26:29;;;;;;;2.15;1.30;;;12.70;29.40;;;;;;5105912;27;34167;-76
2022/03/18 09:28:55;;;;;;;3.30;1.23;;;12.70;29.20;;;;;;5104944;27;34407;-76
2022/03/18 09:31:21;;;;;;;2.90;1.13;;;12.80;28.80;;;;;;5103860;28;35515;-77
2022/03/18 09:33:48;;;;;;;2.67;1.17;;;12.80;28.20;;;;;;5103466;27;34264;-76
2022/03/18 09:36:18;;;;;;;1.60;1.08;;;13.00;28.70;;;;;;5105224;27;34077;-77
2022/03/18 09:38:45;;;;;;;1.95;0.90;;;12.90;20.90;;;;;;5103472;27;34328;-76
2022/03/18 09:41:11;;;;;;;2.45;0.73;;;13.00;25.70;;;;;;5103050;27;36484;-77
2022/03/18 09:43:39;;;;;;;1.92;1.00;;;13.10;21.60;;;;;;5103914;27;34274;-76
2022/03/18 09:46:08;;;;;;;1.77;0.95;;;13.10;25.60;;;;;;5102622;27;34168;-76
2022/03/18 09:48:35;;;;;;;1.73;0.80;;;13.20;23.20;;;;;;5103921;27;34113;-77
2022/03/18 09:51:01;;;;;;;2.70;0.80;;;13.40;23.00;;;;;;5104117;27;35300;-77
2022/03/18 09:53:27;;;;;;;1.80;0.65;;;13.50;24.40;;;;;;5103852;27;34357;-77
2022/03/18 09:55:53;;;;;;;2.15;1.05;;;13.50;23.00;;;;;;5104662;27;34414;-77
2022/03/18 09:58:21;;;;;;;3.10;0.90;;;13.60;21.80;;;;;;5104708;27;34094;-77
2022/03/18 10:00:50;;;;;;;0.70;0.70;;;13.60;19.10;;;;;;5103986;28;35544;-77
2022/03/18 10:03:19;;;;;;;4.18;0.95;;;13.60;17.80;;;;;;5103450;27;34315;-76
2022/03/18 10:06:00;;;;;;;2.08;0.63;;;13.70;20.50;;;;;;5087277;28;34307;-77
2022/03/18 10:08:50;;;;;;;0.85;0.45;;;13.90;8.40;;;;;;5103889;27;34586;-77
2022/03/18 10:11:20;;;;;;;1.13;0.50;;;14.10;13.00;;;;;;5104110;27;35868;-76
2022/03/18 10:14:01;;;;;;;1.25;0.65;;;14.20;17.60;;;;;;5087893;28;34227;-77
2022/03/18 10:16:37;;;;;;;2.15;0.80;;;14.20;9.10;;;;;;5104933;27;34158;-77
2022/03/18 10:19:08;;;;;;;1.10;0.70;;;14.20;12.50;;;;;;5106341;27;34193;-76
2022/03/18 10:21:53;;;;;;;1.98;0.55;;;14.40;16.10;;;;;;5105087;27;36826;-76
2022/03/18 10:24:27;;;;;;;1.55;0.63;;;14.50;9.90;;;;;;5106254;27;33989;-77
2022/03/18 10:27:07;;;;;;;3.50;0.90;;;14.60;15.80;;;;;;5088360;28;34293;-77
2022/03/18 10:29:43;;;;;;;0.40;0.40;;;14.90;18.30;;;;;;5106331;28;34165;-77
2022/03/18 10:32:10;;;;;;;1.13;0.55;;;15.20;12.80;;;;;;5104981;27;35540;-77
2022/03/18 10:37:21;;;;;;;0.47;0.45;;;15.40;15.80;;;;;;5104953;28;33689;-76
2022/03/18 10:39:50;;;;;;;1.00;0.40;;;15.60;16.20;;;;;;5105205;28;34127;-77
2022/03/18 10:42:19;;;;;;;0.75;0.50;;;15.70;16.30;;;;;;5103900;27;34614;-76
2022/03/18 10:44:55;;;;;;;0.55;0.55;;;15.70;10.60;;;;;;5105117;27;34227;-76
2022/03/18 10:47:30;;;;;;;1.10;0.55;;;15.70;6.20;;;;;;5103412;28;34371;-76
2022/03/18 10:50:23;;;;;;;0.80;0.50;;;15.70;9.10;;;;;;5103788;27;34253;-77
2022/03/18 10:53:06;;;;;;;1.42;0.60;;;15.70;6.80;;;;;;5091497;28;35998;-77
2022/03/18 10:55:38;;;;;;;1.40;0.50;;;15.80;4.00;;;;;;5105016;27;34206;-77
2022/03/18 10:58:15;;;;;;;0.57;0.50;;;15.90;7.10;;;;;;5104266;27;34282;-76
2022/03/18 11:00:43;;;;;;;0.50;0.50;;;15.90;1.60;;;;;;5087866;27;34161;-77
2022/03/18 11:03:11;;;;;;;0.85;0.57;;;16.00;11.60;;;;;;5104660;27;35678;-77
2022/03/18 11:05:41;;;;;;;1.02;0.60;;;16.10;12.90;;;;;;5104894;27;34129;-76
2022/03/18 11:08:11;;;;;;;0.77;0.52;;;16.10;7.50;;;;;;5105157;27;34257;-77
2022/03/18 11:13:29;;;;;;;0.68;0.43;;;16.30;7.10;;;;;;5091688;28;34202;-76
2022/03/18 11:15:55;;;;;;;1.55;0.73;;;16.30;10.90;;;;;;5104017;27;34178;-77
2022/03/18 11:18:21;;;;;;;1.15;0.70;;;16.30;10.80;;;;;;5088421;28;34194;-77
2022/03/18 11:21:07;;;;;;;1.70;0.50;;;16.40;11.20;;;;;;5103534;27;34036;-77
2022/03/18 11:23:34;;;;;;;0.47;0.47;;;16.50;9.50;;;;;;5102981;27;35558;-77
2022/03/18 11:26:00;;;;;;;0.50;0.50;;;16.70;7.40;;;;;;5125838;27;34107;-77
2022/03/18 11:28:27;;;;;;;3.67;0.80;;;16.70;10.10;;;;;;5125358;27;34146;-77
2022/03/18 11:31:04;;;;;;;2.35;0.88;;;16.60;9.00;;;;;;5126733;27;34198;-77
2022/03/18 11:33:32;;;;;;;1.30;0.47;;;16.80;3.70;;;;;;5126301;27;36063;-77
2022/03/18 11:36:04;;;;;;;0.50;0.50;;;16.90;9.80;;;;;;5125114;27;34079;-77
2022/03/18 11:38:55;;;;;;;1.25;0.57;;;17.00;6.50;;;;;;5124119;27;34309;-77
2022/03/18 11:41:25;;;;;;;1.00;0.70;;;17.10;1.00;;;;;;5107385;27;34067;-76
2022/03/18 11:43:52;;;;;;;1.23;0.57;;;17.00;1.00;;;;;;5124779;27;35706;-77
2022/03/18 11:46:21;;;;;;;1.08;0.77;;;16.90;9.10;;;;;;5124879;27;33828;-76
2022/03/18 11:48:49;;;;;;;1.60;0.63;;;16.90;5.40;;;;;;5124266;27;34475;-78
2022/03/18 11:51:29;;;;;;;0.50;0.50;;;16.50;1.00;;;;;;5125126;27;34120;-76
2022/03/18 11:54:00;;;;;;;0.70;0.70;;;16.70;1.30;;;;;;5108453;27;35545;-76
2022/03/18 11:56:44;;;;;;;3.58;0.68;;;16.80;6.10;;;;;;5108192;27;34083;-77
2022/03/18 11:59:47;;;;;;;0.63;0.60;;;16.90;1.00;;;;;;5107378;27;34447;-76
2022/03/18 12:02:13;;;;;;;1.33;0.70;;;17.00;2.20;;;;;;5124557;27;34197;-76
2022/03/18 12:04:42;;;;;;;1.38;0.55;;;17.10;7.00;;;;;;5125627;27;36632;-77
2022/03/18 12:07:25;;;;;;;2.28;0.60;;;17.20;6.80;;;;;;5107972;27;34058;-77
2022/03/18 12:10:10;;;;;;;1.48;0.68;;;17.40;1.30;;;;;;5107973;27;34228;-78
2022/03/18 12:12:42;;;;;;;0.63;0.63;;;17.10;1.00;;;;;;5126531;27;34187;-77
2022/03/18 12:15:12;;;;;;;3.22;0.50;;;17.20;3.20;;;;;;5124024;27;35609;-76
2022/03/18 12:17:43;;;;;;;1.58;0.80;;;17.30;6.50;;;;;;5104395;28;34190;-77
2022/03/18 12:20:13;;;;;;;0.43;0.43;;;17.30;3.40;;;;;;5104287;28;34175;-78
2022/03/18 12:22:43;;;;;;;0.80;0.65;;;17.30;4.30;;;;;;5104760;28;34313;-78
2022/03/18 12:25:09;;;;;;;0.50;0.50;;;17.30;4.70;;;;;;5105284;27;34592;-76
2022/03/18 12:27:38;;;;;;;1.20;0.50;;;17.40;6.50;;;;;;5106720;28;34148;-76
2022/03/18 12:30:07;;;;;;;0.65;0.50;;;17.30;6.00;;;;;;5091626;28;34194;-76
2022/03/18 12:32:37;;;;;;;0.60;0.60;;;17.40;3.70;;;;;;5108428;27;34061;-76
2022/03/18 12:35:04;;;;;;;3.85;0.88;;;17.60;6.00;;;;;;5106762;27;35749;-76
2022/03/18 12:37:31;;;;;;;1.20;0.60;;;17.50;3.50;;;;;;5107063;27;34151;-76
2022/03/18 12:40:17;;;;;;;0.85;0.70;;;17.60;5.30;;;;;;5090726;28;34137;-77
2022/03/18 12:42:49;;;;;;;0.52;0.40;;;17.50;2.30;;;;;;5092977;28;34416;-76
2022/03/18 12:45:32;;;;;;;0.55;0.45;;;17.60;1.00;;;;;;5106397;27;35600;-76
2022/03/18 12:48:02;;;;;;;1.63;0.70;;;17.40;1.00;;;;;;5108799;27;34134;-76
2022/03/18 12:50:30;;;;;;;1.05;0.60;;;17.50;1.00;;;;;;5090695;28;34233;-76
2022/03/18 12:52:56;;;;;;;0.82;0.60;;;17.40;4.60;;;;;;5106643;27;34218;-76
2022/03/18 12:55:24;;;;;;;0.82;0.68;;;17.50;5.40;;;;;;5105803;27;35515;-76
2022/03/18 12:57:51;;;;;;;2.70;0.65;;;17.40;5.00;;;;;;5106039;27;34194;-76
2022/03/18 13:00:18;;;;;;;2.65;0.60;;;17.30;5.60;;;;;;5089089;28;34158;-75
2022/03/18 13:02:45;;;;;;;3.30;0.70;;;17.30;4.30;;;;;;5108196;27;34052;-76
2022/03/18 13:05:15;;;;;;;0.93;0.60;;;17.30;5.20;;;;;;5105497;27;36319;-76
2022/03/18 13:07:41;;;;;;;0.63;0.60;;;17.30;3.20;;;;;;5093078;27;34355;-75
2022/03/18 13:10:07;;;;;;;1.15;0.73;;;17.30;4.50;;;;;;5128626;27;34269;-76
2022/03/18 13:12:35;;;;;;;3.22;0.70;;;17.30;5.00;;;;;;5109827;27;34408;-75
2022/03/18 13:15:18;;;;;;;1.15;0.55;;;17.30;1.90;;;;;;5092669;27;35849;-75
2022/03/18 13:17:46;;;;;;;1.33;0.47;;;17.30;1.00;;;;;;5108276;27;34363;-76
2022/03/18 13:20:28;;;;;;;2.75;0.57;;;17.10;1.00;;;;;;5107801;27;34167;-76
2022/03/18 13:22:57;;;;;;;2.97;0.68;;;17.00;1.00;;;;;;5110294;27;34216;-76
2022/03/18 13:25:25;;;;;;;0.60;0.50;;;17.10;3.10;;;;;;5075688;27;36094;-75
2022/03/18 13:27:52;;;;;;;0.93;0.43;;;17.10;1.00;;;;;;5093255;27;34232;-76
2022/03/18 13:33:05;;;;;;;1.67;0.60;;;17.30;1.30;;;;;;5112590;27;34376;-76